createdAt,value
2022-11-06T00:00:25.435Z,91.93
2022-11-06T00:05:25.358Z,91.72
2022-11-06T00:10:25.316Z,91.51
2022-11-06T00:15:25.233Z,91.47
2022-11-06T00:20:25.172Z,91.37
2022-11-06T00:25:25.097Z,91.61
2022-11-06T00:30:25.037Z,91.72
2022-11-06T00:35:24.965Z,91.82
2022-11-06T00:40:24.912Z,91.86
2022-11-06T00:45:24.820Z,91.97
2022-11-06T00:50:24.765Z,92.44
2022-11-06T00:55:24.709Z,92.33
2022-11-06T01:00:24.640Z,92.44
2022-11-06T01:05:43.625Z,92.44
2022-11-06T01:10:36.038Z,92.03
2022-11-06T01:15:35.954Z,92.23
2022-11-06T01:20:35.897Z,92.03
2022-11-06T01:25:35.833Z,91.61
2022-11-06T01:30:35.829Z,91.61
2022-11-06T01:35:35.695Z,91.82
2022-11-06T01:40:35.648Z,90.08
2022-11-06T01:45:35.559Z,90.38
2022-11-06T01:50:35.506Z,90.48
2022-11-06T01:55:35.449Z,89.97
2022-11-06T02:00:35.374Z,89.76
2022-11-06T02:05:35.304Z,90.18
2022-11-06T02:10:35.236Z,90.89
2022-11-06T02:15:35.163Z,89.52
2022-11-06T02:20:35.082Z,90.18
2022-11-06T02:25:35.036Z,90.59
2022-11-06T02:30:34.976Z,90.48
2022-11-06T02:35:34.914Z,89.87
2022-11-06T02:40:34.839Z,90.28
2022-11-06T02:45:34.769Z,90.59
2022-11-06T02:50:34.706Z,90.48
2022-11-06T02:55:34.647Z,90.38
2022-11-06T03:00:34.590Z,90.38
2022-11-06T03:05:34.516Z,90.69
2022-11-06T03:10:34.440Z,90.59
2022-11-06T03:15:34.389Z,91.00
2022-11-06T03:20:34.313Z,91.00
2022-11-06T03:25:34.252Z,91.00
2022-11-06T03:30:34.184Z,91.31
2022-11-06T03:35:34.117Z,91.20
2022-11-06T03:40:34.082Z,91.41
2022-11-06T03:45:33.964Z,91.35
2022-11-06T03:50:33.924Z,91.55
2022-11-06T03:55:33.851Z,90.89
2022-11-06T04:00:33.931Z,91.41
2022-11-06T04:05:33.715Z,91.10
2022-11-06T04:10:33.643Z,90.94
2022-11-06T04:15:33.591Z,90.73
2022-11-06T04:20:33.528Z,91.35
2022-11-06T04:25:33.457Z,91.70
2022-11-06T04:30:33.388Z,92.32
2022-11-06T04:35:33.323Z,92.52
2022-11-06T04:40:33.264Z,92.52
2022-11-06T04:45:33.190Z,92.42
2022-11-06T04:50:33.138Z,92.32
2022-11-06T04:55:33.069Z,92.42
2022-11-06T05:00:33.039Z,92.63
2022-11-06T05:05:32.924Z,92.63
2022-11-06T05:10:32.857Z,93.04
2022-11-06T05:15:32.797Z,93.08
2022-11-06T05:20:32.708Z,93.49
2022-11-06T05:25:32.658Z,93.18
2022-11-06T05:30:32.596Z,93.04
2022-11-06T05:35:32.522Z,92.93
2022-11-06T05:40:32.470Z,92.63
2022-11-06T05:45:32.395Z,92.83
2022-11-06T05:50:32.336Z,92.52
2022-11-06T05:55:32.271Z,92.63
2022-11-06T06:00:32.266Z,92.11
2022-11-06T06:05:32.130Z,92.11
2022-11-06T06:10:32.282Z,92.42
2022-11-06T06:15:31.991Z,92.11
2022-11-06T06:20:31.965Z,91.80
2022-11-06T06:25:31.860Z,91.70
2022-11-06T06:30:31.787Z,91.95
2022-11-06T06:35:31.743Z,91.95
2022-11-06T06:40:31.681Z,92.05
2022-11-06T06:45:31.593Z,91.74
2022-11-06T06:50:31.548Z,91.53
2022-11-06T06:55:31.487Z,91.33
2022-11-06T07:00:47.314Z,91.02
2022-11-06T07:05:39.671Z,90.47
2022-11-06T07:10:39.592Z,90.26
2022-11-06T07:15:39.534Z,89.95
2022-11-06T07:20:39.461Z,89.44
2022-11-06T07:25:39.401Z,85.54
2022-11-06T07:30:39.333Z,81.38
2022-11-06T07:35:39.283Z,78.04
2022-11-06T07:40:39.215Z,76.53
2022-11-06T07:45:39.150Z,78.93
2022-11-06T07:50:39.077Z,83.63
2022-11-06T07:55:42.203Z,86.38
2022-11-06T08:00:39.092Z,87.34
2022-11-06T08:05:38.885Z,85.68
2022-11-06T08:10:38.824Z,75.95
2022-11-06T08:15:38.732Z,70.51
2022-11-06T08:20:38.686Z,69.53
2022-11-06T08:25:38.677Z,68.75
2022-11-06T08:30:38.549Z,66.72
2022-11-06T08:35:38.498Z,63.86
2022-11-06T08:40:38.412Z,63.66
2022-11-06T08:45:38.361Z,64.70
2022-11-06T08:50:38.282Z,64.20
2022-11-06T08:55:38.281Z,62.82
2022-11-06T09:00:38.192Z,63.63
2022-11-06T09:05:38.093Z,61.98
2022-11-06T09:10:38.016Z,61.21
2022-11-06T09:15:37.968Z,60.17
2022-11-06T09:20:37.890Z,60.35
2022-11-06T09:25:37.829Z,59.44
2022-11-06T09:30:37.734Z,58.07
2022-11-06T09:35:37.690Z,59.90
2022-11-06T09:40:37.620Z,58.91
2022-11-06T09:45:37.615Z,55.64
2022-11-06T09:50:37.486Z,59.34
2022-11-06T09:55:37.426Z,61.14
2022-11-06T10:00:37.361Z,57.51
2022-11-06T10:05:37.392Z,54.63
2022-11-06T10:10:37.222Z,51.26
2022-11-06T10:15:37.184Z,52.82
2022-11-06T10:20:37.101Z,53.55
2022-11-06T10:25:37.035Z,52.51
2022-11-06T10:30:36.972Z,50.61
2022-11-06T10:35:36.945Z,52.39
2022-11-06T10:40:36.821Z,58.18
2022-11-06T10:45:36.787Z,62.33
2022-11-06T10:50:37.043Z,65.06
2022-11-06T10:55:36.623Z,67.19
2022-11-06T11:00:36.605Z,68.85
2022-11-06T11:05:36.480Z,69.36
2022-11-06T11:10:36.429Z,70.61
2022-11-06T11:15:36.364Z,71.46
2022-11-06T11:20:36.297Z,70.54
2022-11-06T11:25:36.222Z,70.48
2022-11-06T11:30:36.150Z,66.52
2022-11-06T11:35:36.104Z,65.70
2022-11-06T11:40:36.280Z,67.49
2022-11-06T11:45:35.954Z,66.78
2022-11-06T11:50:35.913Z,66.17
2022-11-06T11:55:35.824Z,66.47
2022-11-06T12:00:35.752Z,65.66
2022-11-06T12:05:35.707Z,61.39
2022-11-06T12:10:35.631Z,55.40
2022-11-06T12:15:35.565Z,57.59
2022-11-06T12:20:35.513Z,62.30
2022-11-06T12:25:35.433Z,61.93
2022-11-06T12:30:35.368Z,61.85
2022-11-06T12:35:35.298Z,61.54
2022-11-06T12:40:35.204Z,60.30
2022-11-06T12:45:35.193Z,60.09
2022-11-06T12:50:35.097Z,61.52
2022-11-06T12:55:35.033Z,61.85
2022-11-06T13:00:34.970Z,62.39
2022-11-06T13:05:34.942Z,62.59
2022-11-06T13:10:34.842Z,61.60
2022-11-06T13:15:34.772Z,61.50
2022-11-06T13:20:34.704Z,60.21
2022-11-06T13:25:39.355Z,60.13
2022-11-06T13:30:35.574Z,61.25
2022-11-06T13:35:34.499Z,62.10
2022-11-06T13:40:34.434Z,61.99
2022-11-06T13:45:34.368Z,62.43
2022-11-06T13:50:34.325Z,63.56
2022-11-06T13:55:34.341Z,63.18
2022-11-06T14:00:34.175Z,63.89
2022-11-06T14:05:34.111Z,65.43
2022-11-06T14:10:34.031Z,65.22
2022-11-06T14:15:33.976Z,66.17
2022-11-06T14:20:33.891Z,66.07
2022-11-06T14:25:33.881Z,67.13
2022-11-06T14:31:05.540Z,68.15
2022-11-06T14:35:34.706Z,69.00
2022-11-06T14:40:33.656Z,70.74
2022-11-06T14:45:33.545Z,70.23
2022-11-06T14:50:33.505Z,70.98
2022-11-06T14:55:33.452Z,70.26
2022-11-06T15:00:33.368Z,71.08
2022-11-06T15:05:34.166Z,71.28
2022-11-06T15:10:33.244Z,71.83
2022-11-06T15:15:33.187Z,71.83
2022-11-06T15:20:33.112Z,71.93
2022-11-06T15:25:33.039Z,71.83
2022-11-06T15:30:32.960Z,72.03
2022-11-06T15:35:32.919Z,72.65
2022-11-06T15:40:32.843Z,73.57
2022-11-06T15:45:32.794Z,74.90
2022-11-06T15:50:32.711Z,75.56
2022-11-06T15:55:32.661Z,76.48
2022-11-06T16:00:32.576Z,77.44
2022-11-06T16:05:32.587Z,77.84
2022-11-06T16:10:32.458Z,79.28
2022-11-06T16:15:32.391Z,80.00
2022-11-06T16:20:32.365Z,80.21
2022-11-06T16:25:32.260Z,81.34
2022-11-06T16:30:32.199Z,82.60
2022-11-06T16:35:32.127Z,83.12
2022-11-06T16:40:32.030Z,83.01
2022-11-06T16:45:31.995Z,83.15
2022-11-06T16:50:31.940Z,82.84
2022-11-06T16:55:31.870Z,84.28
2022-11-06T17:00:31.832Z,85.62
2022-11-06T17:05:31.719Z,85.62
2022-11-06T17:10:31.686Z,83.98
2022-11-06T17:15:31.586Z,83.98
2022-11-06T17:20:31.529Z,83.56
2022-11-06T17:25:31.466Z,82.43
2022-11-06T17:30:31.394Z,83.15
2022-11-06T17:35:31.337Z,82.13
2022-11-06T17:40:31.249Z,82.95
2022-11-06T17:45:31.195Z,82.54
2022-11-06T17:50:32.973Z,83.73
2022-11-06T17:55:31.070Z,83.98
2022-11-06T18:00:31.042Z,84.59
2022-11-06T18:05:30.968Z,85.00
2022-11-06T18:10:31.025Z,84.90
2022-11-06T18:15:30.808Z,85.41
2022-11-06T18:20:30.721Z,84.90
2022-11-06T18:25:30.676Z,84.55
2022-11-06T18:30:30.603Z,84.14
2022-11-06T18:35:30.534Z,84.66
2022-11-06T18:40:30.477Z,84.55
2022-11-06T18:45:30.416Z,84.34
2022-11-06T18:50:30.346Z,84.69
2022-11-06T18:55:30.276Z,84.25
2022-11-06T19:00:30.227Z,83.42
2022-11-06T19:05:30.146Z,83.98
2022-11-06T19:10:30.070Z,83.46
2022-11-06T19:15:30.003Z,83.36
2022-11-06T19:20:30.067Z,83.87
2022-11-06T19:25:29.894Z,83.56
2022-11-06T19:30:29.831Z,83.26
2022-11-06T19:35:29.741Z,83.12
2022-11-06T19:40:29.687Z,83.46
2022-11-06T19:45:29.622Z,83.15
2022-11-06T19:50:58.008Z,83.15
2022-11-06T19:55:30.501Z,83.15
2022-11-06T20:00:29.417Z,82.60
2022-11-06T20:05:29.355Z,82.70
2022-11-06T20:10:29.284Z,82.29
2022-11-06T20:15:29.207Z,81.37
2022-11-06T20:20:34.812Z,80.86
2022-11-06T20:25:30.089Z,80.86
2022-11-06T20:30:28.999Z,79.59
2022-11-06T20:35:28.944Z,80.00
2022-11-06T20:40:33.614Z,79.69
2022-11-06T20:45:29.820Z,79.69
2022-11-06T20:50:28.761Z,79.49
2022-11-06T20:55:28.732Z,79.59
2022-11-06T21:00:28.651Z,79.86
2022-11-06T21:05:29.517Z,80.88
2022-11-06T21:10:28.513Z,80.99
2022-11-06T21:15:28.425Z,81.40
2022-11-06T21:20:28.355Z,82.12
2022-11-06T21:25:29.300Z,82.93
2022-11-06T21:30:28.239Z,83.14
2022-11-06T21:35:28.160Z,83.86
2022-11-06T21:40:28.131Z,84.47
2022-11-06T21:45:28.041Z,84.78
2022-11-06T21:50:30.085Z,85.50
2022-11-06T21:55:27.895Z,86.01
2022-11-06T22:00:28.608Z,86.11
2022-11-06T22:05:27.768Z,86.42
2022-11-06T22:10:27.703Z,87.34
2022-11-06T22:15:27.642Z,87.24
2022-11-06T22:20:27.565Z,87.76
2022-11-06T22:25:27.515Z,88.27
2022-11-06T22:30:27.429Z,88.57
2022-11-06T22:35:27.374Z,88.78
2022-11-06T22:40:27.302Z,89.19
2022-11-06T22:45:27.239Z,89.70
2022-11-06T22:50:27.165Z,90.11
2022-11-06T22:55:27.115Z,90.32
2022-11-06T23:00:27.042Z,90.42
2022-11-06T23:05:26.982Z,90.52
2022-11-06T23:10:26.909Z,90.73
2022-11-06T23:15:27.030Z,90.93
2022-11-06T23:20:26.790Z,90.93
2022-11-06T23:25:26.713Z,91.44
2022-11-06T23:30:26.621Z,91.75
2022-11-06T23:35:32.239Z,91.96
2022-11-06T23:40:27.522Z,91.96
2022-11-06T23:45:26.439Z,92.36
2022-11-06T23:50:26.375Z,92.36
2022-11-06T23:55:26.313Z,92.68
